Terminal Aerodrome Forecast
Issued by NWS Albuquerque, NM

Home | Current Version | Previous Version | Text Only | Print | Product List | Glossary On
Versions: 1 2 3 4 5 6 7 8 9 10 11 12
746
FTUS45 KABQ 192342
TAFABQ
TAF
KABQ 192342Z 2000/2024 19004KT P6SM SCT250
     FM200200 14005KT P6SM SCT250
     FM201900 19012G20KT P6SM BKN120=

USA.gov is the U.S. government's official web portal to all federal, state and local government web resources and services.